Main page
METAR-TAF:

METAR-TAF

Airports :

Burgos Airport

Burgos, Spain

latitude: 42-22N, longitude: 003-38W, elevation: 894 m

Current weather observation

The report was made 24 minutes ago, at 15:30 UTC
Wind 7 kt from the East/Northeast, varying between North/Northeast and East/Southeast
Temperature 14°C
Humidity 41%
Pressure 1017 hPa
Visibility 10 km or more
Few clouds at a height of 3500 ft

METAR: LEBG 281530Z 06007KT 020V110 9999 FEW035 14/01 Q1017

Time: 16:54 (15:54 UTC)

Forecast

The report was made 1 hour and 54 minutes ago, at 14:00 UTC
Forecast valid from 28 at 15 UTC to 28 at 24 UTC
Wind 5 kt from variable directions
Visibility 10 km or more
no clouds below 1500 m and no cumulonimbus
Temporary
from 28 at 18 UTC to 28 at 24 UTC
Wind 10 kt from the East/Northeast

TAF: LEBG 281400Z 2815/2824 VRB05KT CAVOK TEMPO 2818/2824 06010KT

Weather observations and forecasts of more than 4000 airports (METAR and TAF reports).

The available stations are represented by yellow and red dots on the map.

Hover mouse over dot to see the name of the station.

Then click to see weather observations and forecasts.

To change the map : click on the green buttons with a black cross to zoom in, on the green button with a dash to zoom out, or on the green arrows for adjacent maps.


METAR-TAF: